createdAt,value
2018-11-22T12:17:14.188Z,51.90
2018-11-22T12:20:07.818Z,52.33
2018-11-22T12:22:38.175Z,52.31
2018-11-22T12:25:21.980Z,52.47
2018-11-22T12:28:03.934Z,52.17
2018-11-22T12:30:55.783Z,52.42
2018-11-22T12:36:37.412Z,52.39
2018-11-22T12:39:13.410Z,52.56
2018-11-22T12:41:55.240Z,52.52
2018-11-22T12:44:25.250Z,52.40
2018-11-22T12:47:07.106Z,52.06
2018-11-22T12:49:49.844Z,52.19
2018-11-22T12:52:33.234Z,51.86
2018-11-22T12:55:15.240Z,52.23
2018-11-22T12:57:45.272Z,51.85
2018-11-22T13:00:26.373Z,52.14
2018-11-22T13:03:21.041Z,51.76
2018-11-22T13:06:04.010Z,51.99
2018-11-22T13:08:46.190Z,52.53
2018-11-22T13:11:39.121Z,52.33
2018-11-22T13:14:28.180Z,51.84
2018-11-22T13:17:16.084Z,52.10
2018-11-22T13:19:58.545Z,51.59
2018-11-22T13:22:40.368Z,51.30
2018-11-22T13:25:19.417Z,51.12
2018-11-22T13:28:05.194Z,51.58
2018-11-22T13:30:56.877Z,51.46
2018-11-22T13:33:45.525Z,51.21
2018-11-22T13:36:28.498Z,51.61
2018-11-22T13:39:14.677Z,51.33
2018-11-22T13:41:56.372Z,51.69
2018-11-22T13:44:38.426Z,51.27
2018-11-22T13:47:20.743Z,50.77
2018-11-22T13:50:02.425Z,51.01
2018-11-22T13:55:12.796Z,51.27
2018-11-22T13:57:54.674Z,51.03
2018-11-22T14:00:36.625Z,51.38
2018-11-22T14:03:18.181Z,50.90
2018-11-22T14:06:00.237Z,51.04
2018-11-22T14:08:41.890Z,51.43
2018-11-22T14:11:31.662Z,51.43
2018-11-22T14:14:13.313Z,51.29
2018-11-22T14:16:56.528Z,50.23
2018-11-22T14:22:55.338Z,50.92
2018-11-22T14:25:36.627Z,50.63
2018-11-22T14:34:25.113Z,50.52
2018-11-22T14:36:55.080Z,50.91
2018-11-22T14:39:53.380Z,50.10
2018-11-22T14:42:35.702Z,50.51
2018-11-22T14:45:17.740Z,50.79
2018-11-22T14:48:16.157Z,50.85
2018-11-22T14:51:00.739Z,50.88
2018-11-22T14:53:44.277Z,50.90
2018-11-22T14:56:14.236Z,51.00
2018-11-22T14:58:56.455Z,51.15
2018-11-22T15:01:38.092Z,50.92
2018-11-22T15:04:19.831Z,51.11
2018-11-22T15:07:01.505Z,50.74
2018-11-22T15:09:44.170Z,50.83
2018-11-22T15:12:26.296Z,51.07
2018-11-22T15:15:09.093Z,51.07
2018-11-22T15:17:39.706Z,51.16
2018-11-22T15:20:21.940Z,51.01
2018-11-22T15:22:52.836Z,51.33
2018-11-22T15:25:36.135Z,51.81
2018-11-22T15:28:18.462Z,51.46
2018-11-22T15:31:00.694Z,51.86
2018-11-22T15:33:42.461Z,51.75
2018-11-22T15:36:24.919Z,51.94
2018-11-22T15:39:07.862Z,52.21
2018-11-22T15:41:50.373Z,51.78
2018-11-22T15:44:32.981Z,52.24
2018-11-22T15:47:14.841Z,52.20
2018-11-22T15:49:56.590Z,52.30
2018-11-22T15:52:38.421Z,52.13
2018-11-22T15:55:21.238Z,52.57
2018-11-22T15:58:03.158Z,52.37
2018-11-22T16:00:45.318Z,52.64
2018-11-22T16:03:15.262Z,52.91
2018-11-22T16:05:45.296Z,53.02
2018-11-22T16:08:27.874Z,53.23
2018-11-22T16:11:14.735Z,53.17
2018-11-22T16:13:51.356Z,53.44
2018-11-22T16:16:21.405Z,53.41
2018-11-22T16:19:03.665Z,53.77
2018-11-22T16:21:45.339Z,53.66
2018-11-22T16:24:27.078Z,54.09
2018-11-22T16:27:08.893Z,54.44
2018-11-22T16:29:51.598Z,54.77
2018-11-22T16:32:23.416Z,54.65
2018-11-22T16:34:53.417Z,54.66
2018-11-22T16:40:36.519Z,55.42
2018-11-22T16:43:06.761Z,55.27
2018-11-22T16:45:37.772Z,55.54
2018-11-22T16:48:09.723Z,55.64
2018-11-22T16:50:51.936Z,56.16
2018-11-22T16:56:34.040Z,55.93
2018-11-22T16:59:15.907Z,56.49
2018-11-22T17:01:57.628Z,56.03
2018-11-22T17:04:27.630Z,56.67
2018-11-22T17:07:09.566Z,56.57
2018-11-22T17:09:51.891Z,57.08
2018-11-22T17:12:21.880Z,56.83
2018-11-22T17:15:06.913Z,56.98
2018-11-22T17:17:49.563Z,57.15
2018-11-22T17:20:20.526Z,57.47
2018-11-22T17:23:14.968Z,57.55
2018-11-22T17:25:44.997Z,57.76
2018-11-22T17:28:15.084Z,58.14
2018-11-22T17:30:56.738Z,57.99
2018-11-22T17:33:38.227Z,57.97
2018-11-22T17:36:08.665Z,58.29
2018-11-22T17:38:51.107Z,58.27
2018-11-22T17:41:32.974Z,58.35
2018-11-22T17:44:15.371Z,58.32
2018-11-22T17:46:57.192Z,58.66
2018-11-22T17:49:38.872Z,58.76
2018-11-22T17:52:10.184Z,58.94
2018-11-22T17:54:51.929Z,58.83
2018-11-22T17:57:22.615Z,58.94
2018-11-22T18:00:05.233Z,59.03
2018-11-22T18:02:48.243Z,59.18
2018-11-22T18:05:30.454Z,59.22
2018-11-22T18:08:12.059Z,59.02
2018-11-22T18:10:42.861Z,59.50
2018-11-22T18:13:12.842Z,59.65
2018-11-22T18:15:59.822Z,59.60
2018-11-22T18:18:41.770Z,59.38
2018-11-22T18:21:24.274Z,59.56
2018-11-22T18:24:06.202Z,59.68
2018-11-22T18:26:47.878Z,59.76
2018-11-22T18:29:17.925Z,60.08
2018-11-22T18:32:00.510Z,59.78
2018-11-22T18:34:30.604Z,60.08
2018-11-22T18:37:12.431Z,60.36
2018-11-22T18:39:54.038Z,59.97
2018-11-22T18:42:45.419Z,60.23
2018-11-22T18:45:30.865Z,60.21
2018-11-22T18:48:02.353Z,60.62
2018-11-22T18:50:57.655Z,60.57
2018-11-22T18:53:42.196Z,60.50
2018-11-22T18:56:23.911Z,60.70
2018-11-22T18:59:05.864Z,61.11
2018-11-22T19:01:48.081Z,60.40
2018-11-22T19:04:30.029Z,60.87
2018-11-22T19:07:00.132Z,60.78
2018-11-22T19:09:41.813Z,60.98
2018-11-22T19:12:23.342Z,60.76
2018-11-22T19:14:53.285Z,60.99
2018-11-22T19:17:35.608Z,61.30
2018-11-22T19:20:19.482Z,61.19
2018-11-22T19:22:50.400Z,61.00
2018-11-22T19:25:21.035Z,61.30
2018-11-22T19:27:51.334Z,61.36
2018-11-22T19:30:37.279Z,61.36
2018-11-22T19:33:18.183Z,61.30
2018-11-22T19:36:00.671Z,61.46
2018-11-22T19:38:30.988Z,61.45
2018-11-22T19:41:00.996Z,61.71
2018-11-22T19:43:42.785Z,62.27
2018-11-22T19:46:25.322Z,61.76
2018-11-22T19:49:08.125Z,61.50
2018-11-22T19:51:50.858Z,61.68
2018-11-22T19:54:21.339Z,61.56
2018-11-22T19:56:51.411Z,62.00
2018-11-22T19:59:21.757Z,62.10
2018-11-22T20:01:51.874Z,62.14
2018-11-22T20:04:22.172Z,62.11
2018-11-22T20:07:12.001Z,62.18
2018-11-22T20:09:42.088Z,62.17
2018-11-22T20:12:12.112Z,62.04
2018-11-22T20:14:42.183Z,62.27
2018-11-22T20:17:12.245Z,62.50
2018-11-22T20:19:42.387Z,62.44
2018-11-22T20:22:12.401Z,62.27
2018-11-22T20:24:42.509Z,62.37
2018-11-22T20:27:12.569Z,62.60
2018-11-22T20:29:42.568Z,62.58
2018-11-22T20:32:25.214Z,62.82
2018-11-22T20:34:55.333Z,62.88
2018-11-22T20:37:25.773Z,62.64
2018-11-22T20:40:08.160Z,62.94
2018-11-22T20:42:38.815Z,62.85
2018-11-22T20:45:11.620Z,63.12
2018-11-22T20:47:42.438Z,63.12
2018-11-22T20:50:17.937Z,62.63
2018-11-22T20:52:47.977Z,62.95
2018-11-22T20:55:20.903Z,62.92
2018-11-22T20:57:52.716Z,63.04
2018-11-22T21:00:23.955Z,63.30
2018-11-22T21:02:54.296Z,63.24
2018-11-22T21:05:24.920Z,63.35
2018-11-22T21:07:55.776Z,63.33
2018-11-22T21:10:27.100Z,63.50
2018-11-22T21:12:57.232Z,62.98
2018-11-22T21:15:29.781Z,63.16
2018-11-22T21:18:11.827Z,63.18
2018-11-22T21:20:42.529Z,63.49
2018-11-22T21:23:12.558Z,63.50
2018-11-22T21:25:42.583Z,63.36
2018-11-22T21:28:12.598Z,63.55
2018-11-22T21:30:43.130Z,63.36
2018-11-22T21:33:13.162Z,63.74
2018-11-22T21:35:43.184Z,63.44
2018-11-22T21:38:13.243Z,63.47
2018-11-22T21:40:43.268Z,63.24
2018-11-22T21:43:13.304Z,63.33
2018-11-22T21:45:43.320Z,63.66
2018-11-22T21:48:13.278Z,63.67
2018-11-22T21:50:43.312Z,63.29
2018-11-22T21:53:13.311Z,63.53
2018-11-22T21:55:43.372Z,63.82
2018-11-22T21:58:13.399Z,63.51
2018-11-22T22:00:43.428Z,63.34
2018-11-22T22:03:14.096Z,63.79
2018-11-22T22:05:44.133Z,63.29
2018-11-22T22:08:14.178Z,63.51
2018-11-22T22:10:44.176Z,63.58
2018-11-22T22:13:14.248Z,63.91
2018-11-22T22:15:44.307Z,63.87
2018-11-22T22:18:21.014Z,63.95
2018-11-22T22:20:44.313Z,63.74
2018-11-22T22:23:14.299Z,63.70
2018-11-22T22:25:44.274Z,63.86
2018-11-22T22:28:14.187Z,63.67
2018-11-22T22:30:44.182Z,63.81
2018-11-22T22:33:25.636Z,63.47
2018-11-22T22:35:55.635Z,64.08
2018-11-22T22:38:25.564Z,64.01
2018-11-22T22:40:55.760Z,63.88
2018-11-22T22:43:25.771Z,63.80
2018-11-22T22:45:55.816Z,64.23
2018-11-22T22:48:25.815Z,64.03
2018-11-22T22:50:56.645Z,63.79
2018-11-22T22:53:26.553Z,63.65
2018-11-22T22:55:56.571Z,63.82
2018-11-22T22:58:26.588Z,64.22
2018-11-22T23:01:00.588Z,64.19
2018-11-22T23:03:31.452Z,63.92
2018-11-22T23:06:01.471Z,64.32
2018-11-22T23:08:31.459Z,64.00
2018-11-22T23:11:01.401Z,64.36
2018-11-22T23:13:31.417Z,63.98
2018-11-22T23:16:01.460Z,64.76
2018-11-22T23:18:31.504Z,64.72
2018-11-22T23:21:01.493Z,64.28
2018-11-22T23:23:31.469Z,64.50
2018-11-22T23:26:01.471Z,64.52
2018-11-22T23:28:31.489Z,64.60
2018-11-22T23:31:01.517Z,64.39
2018-11-22T23:33:31.525Z,64.66
2018-11-22T23:36:01.546Z,64.65
2018-11-22T23:38:31.476Z,64.80
2018-11-22T23:41:01.519Z,64.55
2018-11-22T23:43:31.517Z,64.42
2018-11-22T23:46:01.538Z,64.48
2018-11-22T23:48:31.567Z,64.65
2018-11-22T23:51:01.586Z,64.80
2018-11-22T23:53:31.600Z,64.62
2018-11-22T23:56:01.611Z,64.84
2018-11-22T23:58:31.594Z,64.70
